This is the latest recevied weather packets stored in our database for station/object KI4SSU. If no packets are shown the sender has not sent any weather packets the latest 1 day(s).
| Time | Temp. | Humidity | Pressure | Rain* | Wind** | Luminosity | Snow |
|---|---|---|---|---|---|---|---|
| 1777981582 | 21.11° C | - | - | 0 mm | 2.24 m/s, 214° | - | - |
| 1777981282 | 21.11° C | - | - | 0 mm | 1.79 m/s, 260° | - | - |
| 1777980982 | 21.11° C | - | - | 0 mm | 1.79 m/s, 207° | - | - |
| 1777980682 | 21.11° C | - | - | 0 mm | 2.68 m/s, 210° | - | - |
| 1777980382 | 21.11° C | - | - | 0 mm | 1.79 m/s, 245° | - | - |
| 1777980082 | 21.11° C | - | - | 0 mm | 3.58 m/s, 229° | - | - |
| 1777979782 | 21.11° C | - | - | 0 mm | 1.79 m/s, 251° | - | - |
| 1777979482 | 21.11° C | - | - | 0 mm | 1.79 m/s, 217° | - | - |
| 1777978883 | 21.11° C | - | - | 0 mm | 2.24 m/s, 215° | - | - |
| 1777978582 | 21.11° C | - | - | 0 mm | 2.24 m/s, 207° | - | - |
| 1777978282 | 21.11° C | - | - | 0 mm | 2.24 m/s, 255° | - | - |
| 1777977983 | 21.11° C | - | - | 0 mm | 2.24 m/s, 220° | - | - |
| 1777977682 | 21.11° C | - | - | 0 mm | 2.24 m/s, 227° | - | - |
| 1777977382 | 21.11° C | - | - | 0 mm | 2.24 m/s, 201° | - | - |
| 1777977082 | 21.67° C | - | - | 0 mm | 1.79 m/s, 217° | - | - |
| 1777976783 | 21.67° C | - | - | 0 mm | 2.68 m/s, 196° | - | - |
| 1777976482 | 21.67° C | - | - | 0 mm | 2.24 m/s, 221° | - | - |
| 1777976182 | 21.67° C | - | - | 0 mm | 2.68 m/s, 225° | - | - |
| 1777975883 | 21.67° C | - | - | 0 mm | 2.24 m/s, 267° | - | - |
| 1777975582 | 21.67° C | - | - | 0 mm | 2.24 m/s, 234° | - | - |
| 1777975282 | 21.67° C | - | - | 0 mm | 2.68 m/s, 204° | - | - |
| 1777974982 | 21.67° C | - | - | 0 mm | 2.24 m/s, 238° | - | - |
| 1777974683 | 21.67° C | - | - | 0 mm | 1.34 m/s, 227° | - | - |
| 1777974382 | 21.67° C | - | - | 0 mm | 2.68 m/s, 177° | - | - |
| 1777974083 | 21.67° C | - | - | 0 mm | 3.13 m/s, 160° | - | - |
* Rain since midnight (hover to see other rain measurements)
** Current wind speed in m/s (hover to see current wind gust speed)